Time;durP1;ratioP1;P1;durP2;ratioP2;P2;SDS_P1;SDS_P2;PMS_P1;PMS_P2;Temp;Humidity;BMP_temperature;BMP_pressure;BME280_temperature;BME280_humidity;BME280_pressure;Samples;Min_cycle;Max_cycle;Signal;HPM_P1;HPM_P2
2023/08/09 00:01:19;;;;;;;2.33;2.20;;;;;;;14.54;100.00;96072.88;5008563;28;20025;-67
2023/08/09 00:03:44;;;;;;;2.47;2.28;;;;;;;14.49;100.00;96064.59;5014652;28;20033;-67
2023/08/09 00:06:10;;;;;;;1.90;1.80;;;;;;;14.50;100.00;96066.25;5014387;28;20575;-67
2023/08/09 00:08:35;;;;;;;1.80;1.70;;;;;;;14.47;100.00;96072.69;5012752;28;20045;-67
2023/08/09 00:11:01;;;;;;;2.30;2.10;;;;;;;14.40;100.00;96068.16;5014735;28;20029;-67
2023/08/09 00:13:26;;;;;;;2.40;2.20;;;;;;;14.37;100.00;96060.53;5014380;28;20062;-67
2023/08/09 00:15:52;;;;;;;2.40;2.20;;;;;;;14.37;100.00;96055.25;5014935;28;20021;-67
2023/08/09 00:18:18;;;;;;;2.10;2.00;;;;;;;14.33;100.00;96054.72;5014236;28;20061;-67
2023/08/09 00:20:43;;;;;;;2.10;2.00;;;;;;;14.29;100.00;96059.50;5005704;28;20028;-67
2023/08/09 00:23:09;;;;;;;2.67;2.20;;;;;;;14.31;100.00;96072.56;5009546;28;20049;-67
2023/08/09 00:25:34;;;;;;;2.20;2.05;;;;;;;14.28;100.00;96080.84;5014552;28;20419;-67
2023/08/09 00:28:00;;;;;;;2.35;2.10;;;;;;;14.31;100.00;96094.59;5045947;28;20049;-67
2023/08/09 00:30:26;;;;;;;1.90;1.80;;;;;;;14.26;100.00;96110.13;5013228;28;20093;-67
2023/08/09 00:32:52;;;;;;;2.30;2.20;;;;;;;14.26;100.00;96115.44;5007907;28;20107;-67
2023/08/09 00:35:18;;;;;;;2.72;2.03;;;;;;;14.28;100.00;96109.97;5014685;28;20047;-67
2023/08/09 00:37:44;;;;;;;2.30;2.10;;;;;;;14.34;100.00;96098.75;5013845;28;20030;-67
2023/08/09 00:40:12;;;;;;;2.20;1.95;;;;;;;14.38;100.00;96099.28;5017128;28;20114;-67
2023/08/09 00:42:41;;;;;;;2.00;1.90;;;;;;;14.36;100.00;96091.47;5009396;28;20057;-67
2023/08/09 00:45:08;;;;;;;2.33;2.00;;;;;;;14.35;100.00;96086.34;5013099;28;20029;-67
2023/08/09 00:47:35;;;;;;;2.30;2.20;;;;;;;14.29;100.00;96086.00;5013805;28;20030;-67
2023/08/09 00:50:02;;;;;;;2.20;2.03;;;;;;;14.27;100.00;96087.13;5013650;28;20025;-67
2023/08/09 00:52:28;;;;;;;2.08;1.98;;;;;;;14.25;100.00;96083.81;5013874;28;20036;-67
2023/08/09 00:54:53;;;;;;;2.10;2.00;;;;;;;14.16;100.00;96093.50;5014304;28;20033;-67
2023/08/09 00:57:19;;;;;;;2.47;2.08;;;;;;;14.10;100.00;96086.19;5013475;28;20033;-67
2023/08/09 00:59:45;;;;;;;2.08;1.98;;;;;;;14.06;100.00;96093.59;5014143;28;20075;-67
2023/08/09 01:02:11;;;;;;;2.55;2.45;;;;;;;14.00;100.00;96094.22;5013833;28;20021;-67
2023/08/09 01:04:37;;;;;;;1.75;1.65;;;;;;;13.94;100.00;96100.94;5014186;28;20595;-67
2023/08/09 01:07:15;;;;;;;2.40;2.20;;;;;;;13.83;100.00;96090.63;5014013;28;20037;-67
2023/08/09 01:10:00;;;;;;;2.65;2.30;;;;;;;13.80;100.00;96089.09;5011698;28;20503;-67
2023/08/09 01:12:34;;;;;;;2.50;2.30;;;;;;;13.78;100.00;96092.84;5013813;28;20184;-67
2023/08/09 01:15:01;;;;;;;2.08;1.98;;;;;;;13.80;100.00;96101.47;5027780;28;20025;-67
2023/08/09 01:17:28;;;;;;;1.92;1.83;;;;;;;13.75;100.00;96102.78;5014020;28;20094;-67
2023/08/09 01:19:55;;;;;;;2.65;2.15;;;;;;;13.77;100.00;96107.91;5013564;28;20022;-67
2023/08/09 01:22:26;;;;;;;1.88;1.77;;;;;;;13.79;100.00;96111.25;5014012;28;20036;-67
2023/08/09 01:24:51;;;;;;;2.05;1.90;;;;;;;13.78;100.00;96120.16;5012265;28;20033;-67
2023/08/09 01:27:17;;;;;;;2.22;2.13;;;;;;;13.70;100.00;96123.56;5017075;28;20196;-67
2023/08/09 01:29:43;;;;;;;2.28;2.17;;;;;;;13.62;100.00;96123.50;5013889;28;20036;-67
2023/08/09 01:32:08;;;;;;;2.63;2.47;;;;;;;13.61;100.00;96119.19;5012938;28;20101;-67
2023/08/09 01:34:36;;;;;;;2.95;2.10;;;;;;;13.56;100.00;96122.28;5017572;28;20022;-67
2023/08/09 01:37:12;;;;;;;2.20;2.10;;;;;;;13.58;100.00;96111.53;5011817;28;20034;-67
2023/08/09 01:39:39;;;;;;;2.17;2.08;;;;;;;13.53;100.00;96108.50;5012920;28;20025;-67
2023/08/09 01:42:06;;;;;;;2.65;2.40;;;;;;;13.50;100.00;96111.47;5011047;28;20152;-67
2023/08/09 01:44:33;;;;;;;3.88;2.42;;;;;;;13.44;100.00;96110.25;5013053;28;20053;-68
2023/08/09 01:46:59;;;;;;;2.25;2.05;;;;;;;13.40;100.00;96107.03;5013337;28;20398;-67
2023/08/09 01:49:25;;;;;;;2.33;2.15;;;;;;;13.36;100.00;96095.09;5013243;28;20041;-68
2023/08/09 01:51:51;;;;;;;2.10;2.00;;;;;;;13.31;100.00;96092.06;5013741;28;20067;-67
2023/08/09 01:54:17;;;;;;;2.30;2.13;;;;;;;13.32;100.00;96089.28;5013341;28;20432;-67
2023/08/09 01:56:43;;;;;;;2.58;1.85;;;;;;;13.35;100.00;96088.13;5044996;28;20034;-67
2023/08/09 01:59:09;;;;;;;2.05;1.95;;;;;;;13.32;100.00;96088.44;5012989;28;20037;-66
2023/08/09 02:01:37;;;;;;;1.90;1.80;;;;;;;13.29;100.00;96089.59;5013337;28;20030;-66
2023/08/09 02:04:04;;;;;;;2.15;2.00;;;;;;;13.27;100.00;96088.91;5011904;28;20030;-65
2023/08/09 02:06:32;;;;;;;2.40;2.20;;;;;;;13.22;100.00;96082.38;4992493;28;20037;-68
2023/08/09 02:08:59;;;;;;;2.35;2.15;;;;;;;13.21;100.00;96088.66;5011810;28;20037;-68
2023/08/09 02:11:25;;;;;;;2.25;2.13;;;;;;;13.17;100.00;96094.25;5013489;28;20065;-67
2023/08/09 02:13:51;;;;;;;2.05;1.95;;;;;;;13.13;100.00;96084.94;5013436;28;20492;-68
2023/08/09 02:16:16;;;;;;;2.28;2.17;;;;;;;13.12;100.00;96091.19;5012252;28;20069;-68
2023/08/09 02:18:42;;;;;;;2.45;2.30;;;;;;;13.15;100.00;96090.94;5011770;28;20077;-68
2023/08/09 02:21:07;;;;;;;2.30;2.10;;;;;;;13.17;100.00;96098.69;5013522;28;20026;-68
2023/08/09 02:23:33;;;;;;;2.28;2.05;;;;;;;13.15;100.00;96095.38;5016650;28;20029;-68
2023/08/09 02:25:58;;;;;;;2.58;2.38;;;;;;;13.12;100.00;96096.47;5018250;28;20033;-66
2023/08/09 02:28:24;;;;;;;2.42;2.30;;;;;;;13.07;100.00;96095.28;5017842;28;20080;-66
2023/08/09 02:30:49;;;;;;;2.17;2.08;;;;;;;13.00;100.00;96089.75;5016501;28;20164;-66
2023/08/09 02:33:15;;;;;;;2.10;2.00;;;;;;;12.96;100.00;96091.84;5015523;28;20041;-66
2023/08/09 02:35:54;;;;;;;5.20;2.20;;;;;;;12.90;100.00;96095.91;5014684;28;20029;-66
2023/08/09 02:38:21;;;;;;;2.90;2.13;;;;;;;12.86;100.00;96099.00;5016639;28;20601;-66
2023/08/09 02:40:46;;;;;;;2.72;2.22;;;;;;;12.84;100.00;96096.50;5016509;28;20022;-66
2023/08/09 02:43:11;;;;;;;1.90;1.80;;;;;;;12.89;100.00;96099.53;5016913;28;20569;-66
2023/08/09 02:45:37;;;;;;;2.33;2.13;;;;;;;12.85;100.00;96110.56;5047853;28;20116;-67
2023/08/09 02:48:03;;;;;;;2.20;2.10;;;;;;;12.82;100.00;96106.38;5048084;28;20026;-66
2023/08/09 02:50:28;;;;;;;2.05;1.95;;;;;;;12.71;100.00;96106.53;5015571;28;20056;-69
2023/08/09 02:52:54;;;;;;;2.08;1.98;;;;;;;12.66;100.00;96103.50;5015092;28;20030;-66
2023/08/09 02:55:20;;;;;;;1.98;1.88;;;;;;;12.61;100.00;96103.97;5015921;28;20044;-66
2023/08/09 02:57:45;;;;;;;2.45;1.98;;;;;;;12.65;100.00;96097.41;5016243;28;20036;-66
2023/08/09 03:00:15;;;;;;;2.33;2.08;;;;;;;12.60;100.00;96089.91;5015792;28;20025;-67
2023/08/09 03:02:40;;;;;;;2.33;2.22;;;;;;;12.55;100.00;96080.75;5015989;28;20422;-66
2023/08/09 03:05:06;;;;;;;2.20;2.10;;;;;;;12.57;100.00;96073.50;5016019;28;20105;-66
2023/08/09 03:07:31;;;;;;;2.00;1.90;;;;;;;12.55;100.00;96086.03;5015814;28;20034;-66
2023/08/09 03:09:57;;;;;;;2.30;2.10;;;;;;;12.51;100.00;96088.16;5015281;28;20045;-66
2023/08/09 03:12:22;;;;;;;2.55;2.35;;;;;;;12.44;100.00;96082.63;5031351;28;20100;-66
2023/08/09 03:14:47;;;;;;;2.97;2.53;;;;;;;12.42;100.00;96086.34;5015504;28;20037;-66
2023/08/09 03:17:13;;;;;;;2.35;2.15;;;;;;;12.44;100.00;96089.69;5007043;28;20057;-66
2023/08/09 03:19:38;;;;;;;2.20;2.10;;;;;;;12.44;100.00;96089.69;5012027;28;20029;-66
2023/08/09 03:22:04;;;;;;;3.05;2.38;;;;;;;12.46;100.00;96082.44;4990328;28;20023;-66
2023/08/09 03:24:29;;;;;;;2.28;2.17;;;;;;;12.39;100.00;96074.28;5028448;28;20025;-66
2023/08/09 03:26:55;;;;;;;2.10;1.98;;;;;;;12.39;100.00;96086.66;5049425;28;20124;-66
2023/08/09 03:29:20;;;;;;;2.35;2.20;;;;;;;12.39;100.00;96082.22;5014353;28;20113;-66
2023/08/09 03:31:46;;;;;;;2.20;2.10;;;;;;;12.44;100.00;96089.69;5014212;28;20099;-66
2023/08/09 03:34:11;;;;;;;2.63;2.42;;;;;;;12.44;100.00;96103.75;5005298;28;20025;-66
2023/08/09 03:36:37;;;;;;;2.50;2.30;;;;;;;12.44;100.00;96102.88;5006198;28;20032;-66
2023/08/09 03:39:02;;;;;;;6.78;2.00;;;;;;;12.39;100.00;96105.13;5007664;28;20026;-66
2023/08/09 03:41:28;;;;;;;3.08;2.13;;;;;;;12.37;100.00;96097.34;5015518;28;20255;-66
2023/08/09 03:43:54;;;;;;;2.00;1.90;;;;;;;12.31;100.00;96090.84;5015005;28;20068;-66
2023/08/09 03:46:19;;;;;;;2.50;2.30;;;;;;;12.25;100.00;96080.84;5015387;28;20022;-65
2023/08/09 03:48:44;;;;;;;3.25;2.00;;;;;;;12.24;100.00;96078.38;5014579;28;20394;-66
2023/08/09 03:51:10;;;;;;;4.20;2.35;;;;;;;12.24;100.00;96076.53;5014758;28;20017;-66
2023/08/09 03:53:35;;;;;;;2.25;2.15;;;;;;;12.21;100.00;96076.81;5014827;28;20018;-66
2023/08/09 03:56:01;;;;;;;2.30;2.20;;;;;;;12.17;100.00;96078.94;5015143;28;20041;-66
2023/08/09 03:58:27;;;;;;;2.10;2.00;;;;;;;12.17;100.00;96075.47;5014655;28;20095;-66
2023/08/09 04:00:52;;;;;;;2.45;1.98;;;;;;;12.16;100.00;96072.00;5015096;28;20406;-66
2023/08/09 04:03:18;;;;;;;2.20;2.10;;;;;;;12.13;100.00;96079.34;5014800;28;20034;-66
2023/08/09 04:05:44;;;;;;;3.35;2.30;;;;;;;12.10;100.00;96093.66;5014960;28;20422;-66
2023/08/09 04:08:10;;;;;;;6.30;2.10;;;;;;;12.08;100.00;96094.78;5014667;28;20076;-66
2023/08/09 04:10:35;;;;;;;2.10;2.00;;;;;;;12.04;100.00;96088.94;5014911;28;20026;-66
2023/08/09 04:13:01;;;;;;;2.38;2.17;;;;;;;12.04;100.00;96086.31;5013563;28;20030;-66
2023/08/09 04:15:26;;;;;;;2.28;2.17;;;;;;;12.01;100.00;96090.06;5014629;28;20032;-66
2023/08/09 04:17:52;;;;;;;2.63;2.42;;;;;;;12.06;100.00;96087.00;5014489;28;20022;-66
2023/08/09 04:20:19;;;;;;;2.40;2.30;;;;;;;12.06;100.00;96094.91;5014548;28;20041;-66
2023/08/09 04:22:44;;;;;;;2.47;2.22;;;;;;;12.06;100.00;96094.09;5014264;28;20067;-66
2023/08/09 04:25:13;;;;;;;3.95;2.22;;;;;;;12.01;100.00;96105.88;5014271;28;20017;-66
2023/08/09 04:27:39;;;;;;;2.20;2.10;;;;;;;12.01;100.00;96105.06;5019240;28;20045;-66
2023/08/09 04:30:09;;;;;;;2.22;2.00;;;;;;;12.02;100.00;96106.75;5010510;28;20030;-66
2023/08/09 04:32:37;;;;;;;5.15;2.92;;;;;;;11.99;100.00;96107.00;5016471;28;20490;-66
2023/08/09 04:35:04;;;;;;;2.60;2.40;;;;;;;11.99;100.00;96112.28;5014367;28;20057;-66
2023/08/09 04:37:30;;;;;;;2.42;2.30;;;;;;;11.97;100.00;96115.03;5001665;28;20053;-66
2023/08/09 04:39:55;;;;;;;3.45;2.40;;;;;;;11.96;100.00;96112.56;5019588;28;20041;-66
2023/08/09 04:42:21;;;;;;;5.55;2.42;;;;;;;11.95;100.00;96092.41;5012928;28;20466;-66
2023/08/09 04:44:47;;;;;;;2.88;2.50;;;;;;;11.96;100.00;96105.47;5013679;28;20068;-66
2023/08/09 04:47:12;;;;;;;2.97;2.20;;;;;;;11.99;100.00;96102.53;5013321;28;20454;-66
2023/08/09 04:49:37;;;;;;;2.58;2.35;;;;;;;11.93;100.00;96103.09;5015232;28;20049;-66
2023/08/09 04:52:03;;;;;;;2.60;2.40;;;;;;;11.93;100.00;96104.88;4995898;28;20128;-66
2023/08/09 04:54:29;;;;;;;2.83;2.42;;;;;;;11.99;100.00;96105.16;5012546;28;20030;-66
2023/08/09 04:56:54;;;;;;;2.50;2.30;;;;;;;12.00;100.00;96098.91;5012792;28;20033;-66
2023/08/09 04:59:20;;;;;;;2.80;2.47;;;;;;;12.01;100.00;96090.06;5028884;28;20052;-66
2023/08/09 05:01:45;;;;;;;3.45;2.60;;;;;;;12.01;100.00;96082.13;5013992;28;20475;-66
2023/08/09 05:04:11;;;;;;;2.25;2.10;;;;;;;11.97;100.00;96080.72;5013734;28;20026;-68
2023/08/09 05:06:36;;;;;;;4.05;2.80;;;;;;;12.03;100.00;96082.81;5013525;28;20026;-68
2023/08/09 05:09:03;;;;;;;2.55;2.33;;;;;;;12.03;100.00;96082.00;5000295;28;20037;-68
2023/08/09 05:11:28;;;;;;;2.97;2.67;;;;;;;12.01;100.00;96070.78;5013018;28;20117;-68
2023/08/09 05:13:54;;;;;;;5.47;2.70;;;;;;;12.06;100.00;96065.06;5008780;28;20049;-68
2023/08/09 05:16:24;;;;;;;2.78;2.55;;;;;;;12.12;100.00;96054.75;5013573;28;20045;-67
2023/08/09 05:18:49;;;;;;;4.20;2.42;;;;;;;12.21;100.00;96061.00;5013998;28;20025;-68
2023/08/09 05:21:15;;;;;;;3.75;2.75;;;;;;;12.25;100.00;96065.00;5013852;28;20014;-68
2023/08/09 05:23:40;;;;;;;4.15;2.42;;;;;;;12.28;100.00;96059.47;5012472;28;20076;-68
2023/08/09 05:26:05;;;;;;;2.72;2.60;;;;;;;12.34;100.00;96065.13;5015234;28;20021;-68
2023/08/09 05:28:31;;;;;;;3.72;2.78;;;;;;;12.33;100.00;96072.22;5001704;28;20419;-68
2023/08/09 05:30:56;;;;;;;4.43;2.40;;;;;;;12.28;100.00;96069.19;5013426;28;20411;-68
2023/08/09 05:33:22;;;;;;;4.88;3.08;;;;;;;12.23;100.00;96066.13;5023366;28;20085;-68
2023/08/09 05:35:47;;;;;;;3.72;2.50;;;;;;;12.25;100.00;96054.44;5012622;28;20026;-68
2023/08/09 05:38:12;;;;;;;4.88;2.50;;;;;;;12.25;100.00;96051.81;5013443;28;20111;-67
2023/08/09 05:40:38;;;;;;;4.13;3.05;;;;;;;12.25;100.00;96038.59;5013407;28;20022;-68
2023/08/09 05:43:03;;;;;;;3.22;2.60;;;;;;;12.29;100.00;96034.72;5013583;28;20724;-67
2023/08/09 05:45:29;;;;;;;5.10;2.80;;;;;;;12.35;100.00;96035.94;5006064;28;20438;-67
2023/08/09 05:47:54;;;;;;;4.20;2.83;;;;;;;12.43;100.00;96019.38;5012207;28;20029;-67
2023/08/09 05:50:20;;;;;;;2.63;2.42;;;;;;;12.54;100.00;96011.28;5010513;28;20038;-67
2023/08/09 05:52:45;;;;;;;4.70;2.30;;;;;;;12.68;100.00;96030.22;5013485;28;20029;-67
2023/08/09 05:55:10;;;;;;;3.05;2.30;;;;;;;12.87;100.00;96039.88;5044821;28;20056;-67
2023/08/09 05:57:36;;;;;;;3.00;2.40;;;;;;;13.07;100.00;96047.72;5014292;28;20034;-67
2023/08/09 06:00:04;;;;;;;3.05;2.38;;;;;;;13.20;100.00;96063.22;5015405;28;20018;-67
2023/08/09 06:02:33;;;;;;;3.50;2.63;;;;;;;13.26;100.00;96078.47;5017423;28;20057;-67
2023/08/09 06:04:59;;;;;;;3.53;2.22;;;;;;;13.31;100.00;96084.97;5042667;28;20430;-67
2023/08/09 06:07:24;;;;;;;4.80;2.72;;;;;;;13.37;100.00;96090.63;5013839;28;20018;-67
2023/08/09 06:09:50;;;;;;;4.63;2.78;;;;;;;13.43;100.00;96090.91;5015386;28;20635;-67
2023/08/09 06:12:15;;;;;;;2.83;2.22;;;;;;;13.54;100.00;96087.22;5016857;28;20148;-67
2023/08/09 06:14:40;;;;;;;2.40;2.20;;;;;;;13.62;100.00;96099.69;5016697;28;20037;-67
2023/08/09 06:17:06;;;;;;;2.33;2.08;;;;;;;13.71;100.00;96111.19;5016542;28;20112;-67
2023/08/09 06:19:33;;;;;;;2.22;1.95;;;;;;;13.83;100.00;96112.59;5016783;28;20025;-67
2023/08/09 06:21:59;;;;;;;3.15;2.40;;;;;;;13.97;100.00;96123.66;5015353;28;20442;-67
2023/08/09 06:24:24;;;;;;;2.30;2.10;;;;;;;14.10;100.00;96123.25;5016455;28;20029;-67
2023/08/09 06:26:50;;;;;;;6.60;2.15;;;;;;;14.20;100.00;96139.88;5015917;28;20056;-67
2023/08/09 06:29:15;;;;;;;2.25;1.98;;;;;;;14.32;100.00;96140.44;5006845;28;20033;-67
2023/08/09 06:31:42;;;;;;;4.72;2.13;;;;;;;14.54;100.00;96152.38;5016025;28;20018;-67
2023/08/09 06:34:08;;;;;;;2.70;1.98;;;;;;;14.73;100.00;96161.13;5023175;28;20026;-67
2023/08/09 06:36:34;;;;;;;5.30;2.58;;;;;;;14.93;100.00;96176.81;5016689;28;20036;-67
2023/08/09 06:39:00;;;;;;;2.47;1.80;;;;;;;15.10;100.00;96194.44;5016466;28;20021;-67
2023/08/09 06:41:25;;;;;;;1.88;1.75;;;;;;;15.21;100.00;96192.53;5015288;28;20057;-67
2023/08/09 06:43:51;;;;;;;1.80;1.70;;;;;;;15.37;100.00;96203.22;5016067;28;20057;-67
2023/08/09 06:46:16;;;;;;;2.03;1.80;;;;;;;15.44;100.00;96196.28;5016342;28;20030;-67
2023/08/09 06:48:41;;;;;;;1.88;1.77;;;;;;;15.50;100.00;96207.22;5016094;28;20046;-67
2023/08/09 06:51:07;;;;;;;2.00;1.90;;;;;;;15.56;100.00;96219.84;5017607;28;20034;-67
2023/08/09 06:53:33;;;;;;;4.30;2.25;;;;;;;15.59;100.00;96219.56;5016164;28;20033;-67
2023/08/09 06:55:58;;;;;;;5.00;2.05;;;;;;;15.67;100.00;96221.38;5015247;28;20025;-67
2023/08/09 06:58:24;;;;;;;2.10;2.00;;;;;;;15.80;100.00;96223.56;5016073;28;20053;-67
2023/08/09 07:00:49;;;;;;;2.42;2.25;;;;;;;16.04;100.00;96234.31;5015774;28;20076;-67
2023/08/09 07:03:15;;;;;;;2.33;1.85;;;;;;;16.26;100.00;96233.84;5014671;28;20028;-68
2023/08/09 07:05:41;;;;;;;2.60;1.65;;;;;;;16.56;100.00;96239.50;5015524;28;20018;-67
2023/08/09 07:08:07;;;;;;;1.40;1.30;;;;;;;16.84;100.00;96232.00;5014225;28;20025;-67
2023/08/09 07:10:32;;;;;;;2.35;1.52;;;;;;;17.09;100.00;96233.84;5009459;28;20571;-67
2023/08/09 07:12:58;;;;;;;3.30;1.95;;;;;;;17.23;100.00;96232.31;5014120;28;20026;-67
2023/08/09 07:15:23;;;;;;;1.92;1.70;;;;;;;17.44;100.00;96229.06;5015858;28;20068;-67
2023/08/09 07:17:49;;;;;;;1.60;1.60;;;;;;;17.76;100.00;96227.28;5047370;28;20030;-67
2023/08/09 07:20:14;;;;;;;1.92;1.70;;;;;;;18.35;100.00;96222.44;5015481;28;20021;-65
2023/08/09 07:22:41;;;;;;;1.80;1.60;;;;;;;18.73;100.00;96212.63;5030261;28;20017;-66
2023/08/09 07:25:08;;;;;;;1.90;1.60;;;;;;;18.97;100.00;96209.94;5015507;28;20022;-65
2023/08/09 07:27:34;;;;;;;2.00;1.73;;;;;;;19.32;100.00;96194.22;5017987;28;20102;-65
2023/08/09 07:30:00;;;;;;;2.58;1.60;;;;;;;19.68;100.00;96195.31;5015044;28;20478;-65
2023/08/09 07:32:26;;;;;;;1.50;1.40;;;;;;;20.02;100.00;96209.88;5017515;28;20026;-65
2023/08/09 07:34:52;;;;;;;1.73;1.63;;;;;;;20.13;100.00;96205.88;5002639;28;20129;-65
2023/08/09 07:37:17;;;;;;;3.78;1.50;;;;;;;20.46;100.00;96194.72;5013895;28;20010;-65
2023/08/09 07:39:43;;;;;;;2.17;1.70;;;;;;;20.78;100.00;96203.19;5013918;28;20014;-65
2023/08/09 07:42:10;;;;;;;1.23;1.23;;;;;;;20.93;100.00;96205.78;5015181;28;20620;-65
2023/08/09 07:44:35;;;;;;;1.88;1.77;;;;;;;20.96;100.00;96199.22;5015217;28;20461;-65
2023/08/09 07:47:00;;;;;;;2.22;1.70;;;;;;;21.14;100.00;96190.69;5014619;28;20101;-65
2023/08/09 07:49:26;;;;;;;1.60;1.50;;;;;;;21.43;100.00;96188.78;5015251;28;20030;-66
2023/08/09 07:51:51;;;;;;;1.50;1.40;;;;;;;21.74;100.00;96190.19;5014588;28;20040;-66
2023/08/09 07:54:17;;;;;;;1.63;1.50;;;;;;;22.06;100.00;96195.84;5014953;28;20022;-66
2023/08/09 07:56:43;;;;;;;1.88;1.50;;;;;;;22.30;100.00;96190.94;5013655;28;20351;-66
2023/08/09 07:59:09;;;;;;;3.45;1.38;;;;;;;22.44;100.00;96194.50;5015072;28;20029;-66
2023/08/09 08:01:35;;;;;;;1.80;1.70;;;;;;;22.58;100.00;96196.19;5015182;28;20060;-66
2023/08/09 08:04:00;;;;;;;3.33;1.60;;;;;;;22.87;100.00;96196.78;5014988;28;20026;-66
2023/08/09 08:06:27;;;;;;;2.88;1.60;;;;;;;22.69;100.00;96200.09;5014646;28;20026;-65
2023/08/09 08:08:52;;;;;;;2.35;1.70;;;;;;;22.64;100.00;96207.09;5014580;28;20314;-66
2023/08/09 08:11:18;;;;;;;1.75;1.65;;;;;;;22.74;100.00;96212.91;5014561;28;20018;-66
2023/08/09 08:13:43;;;;;;;2.20;1.70;;;;;;;22.90;100.00;96198.22;5014952;28;20080;-66
2023/08/09 08:16:09;;;;;;;1.45;1.40;;;;;;;23.23;100.00;96212.66;5014781;28;20026;-66
2023/08/09 08:18:34;;;;;;;1.92;1.50;;;;;;;23.38;100.00;96213.28;5014277;28;20402;-66
2023/08/09 08:21:00;;;;;;;2.05;1.80;;;;;;;23.43;100.00;96208.09;5014368;28;20102;-66
2023/08/09 08:23:26;;;;;;;2.47;1.80;;;;;;;23.52;100.00;96211.38;5013064;28;20053;-65
2023/08/09 08:25:51;;;;;;;1.60;1.50;;;;;;;23.62;100.00;96200.19;5013456;28;20084;-65
2023/08/09 08:28:17;;;;;;;5.95;1.70;;;;;;;23.78;100.00;96208.81;5022755;28;20049;-65
2023/08/09 08:30:42;;;;;;;1.48;1.48;;;;;;;23.94;100.00;96194.88;5013666;28;20053;-66
2023/08/09 08:33:08;;;;;;;1.80;1.70;;;;;;;23.99;100.00;96194.22;5022395;28;20501;-66
2023/08/09 08:35:43;;;;;;;2.95;1.70;;;;;;;24.32;100.00;96191.38;5014862;28;20533;-66
2023/08/09 08:38:09;;;;;;;1.58;1.55;;;;;;;24.42;100.00;96193.59;5014611;28;20053;-66
2023/08/09 08:40:35;;;;;;;1.70;1.30;;;;;;;24.54;100.00;96185.63;5014082;28;20072;-66
2023/08/09 08:43:00;;;;;;;1.60;1.50;;;;;;;24.51;100.00;96191.44;5014227;28;20029;-66
2023/08/09 08:45:26;;;;;;;1.70;1.60;;;;;;;24.40;100.00;96186.75;5014264;28;20036;-66
2023/08/09 08:47:52;;;;;;;2.25;1.40;;;;;;;24.50;100.00;96184.41;5014168;28;20026;-66
2023/08/09 08:50:18;;;;;;;1.20;1.20;;;;;;;24.61;100.00;96183.69;5007008;28;20036;-66
2023/08/09 08:52:48;;;;;;;2.20;1.50;;;;;;;24.94;100.00;96175.59;5014205;28;20570;-64
2023/08/09 08:55:15;;;;;;;1.33;1.23;;;;;;;25.32;100.00;96177.31;5013897;28;20022;-65
2023/08/09 08:57:42;;;;;;;1.60;1.50;;;;;;;25.22;100.00;96175.13;5014215;28;20021;-66
2023/08/09 09:00:15;;;;;;;1.23;1.23;;;;;;;25.17;100.00;96172.25;5016905;28;20036;-65
2023/08/09 09:02:41;;;;;;;1.40;1.40;;;;;;;25.17;100.00;96175.78;5020028;28;20097;-65
2023/08/09 09:05:07;;;;;;;1.70;1.60;;;;;;;25.28;100.00;96168.00;5020367;28;20041;-65
2023/08/09 09:07:33;;;;;;;1.83;1.30;;;;;;;25.38;100.00;96160.22;5020440;28;20061;-65
2023/08/09 09:10:00;;;;;;;1.70;1.60;;;;;;;25.43;100.00;96154.97;5022367;28;20536;-65
2023/08/09 09:12:26;;;;;;;1.17;1.17;;;;;;;25.46;100.00;96154.53;5017848;28;20032;-65
2023/08/09 09:14:52;;;;;;;1.60;1.50;;;;;;;25.57;100.00;96160.25;5015717;28;20034;-66
2023/08/09 09:17:19;;;;;;;1.33;1.30;;;;;;;26.08;100.00;96150.03;5021635;28;20072;-66
2023/08/09 09:19:45;;;;;;;2.72;1.50;;;;;;;26.21;100.00;96159.84;5017714;28;20472;-66
2023/08/09 09:22:26;;;;;;;1.27;1.27;;;;;;;26.33;100.00;96150.94;5017788;28;20026;-65
2023/08/09 09:24:51;;;;;;;2.78;1.30;;;;;;;26.22;100.00;96164.19;5018922;28;20045;-65
2023/08/09 09:27:16;;;;;;;1.40;1.40;;;;;;;26.38;100.00;96159.16;5020496;28;20102;-66
2023/08/09 09:29:42;;;;;;;1.50;1.40;;;;;;;26.71;100.00;96150.53;5025676;28;20043;-66
2023/08/09 09:32:08;;;;;;;1.30;1.30;;;;;;;26.93;100.00;96147.28;5021958;28;20024;-66
2023/08/09 09:34:35;;;;;;;1.52;1.42;;;;;;;26.92;100.00;96139.44;5019703;28;20021;-65
2023/08/09 09:37:01;;;;;;;1.50;1.40;;;;;;;27.02;100.00;96142.34;5016700;28;20117;-66
2023/08/09 09:39:28;;;;;;;1.23;1.23;;;;;;;27.19;100.00;96141.63;5006184;28;20034;-65
2023/08/09 09:41:53;;;;;;;2.42;1.40;;;;;;;27.24;100.00;96139.03;5017195;28;20022;-65
2023/08/09 09:44:23;;;;;;;1.40;1.40;;;;;;;27.07;100.00;96134.34;5017669;28;20045;-66
2023/08/09 09:46:55;;;;;;;1.27;1.27;;;;;;;27.15;100.00;96131.31;5049380;28;20087;-65
2023/08/09 09:49:20;;;;;;;1.35;1.33;;;;;;;27.21;100.00;96126.84;5017190;28;20029;-65
2023/08/09 09:51:47;;;;;;;1.63;1.50;;;;;;;26.31;100.00;96130.41;5017449;28;20030;-65
2023/08/09 09:54:13;;;;;;;2.72;1.40;;;;;;;26.20;100.00;96131.22;5016271;28;20029;-65
2023/08/09 09:56:38;;;;;;;1.48;1.40;;;;;;;26.62;100.00;96124.09;5017557;28;20552;-65
2023/08/09 09:59:04;;;;;;;1.70;1.60;;;;;;;26.81;100.00;96124.84;5017116;28;20030;-65
2023/08/09 10:01:32;;;;;;;1.20;1.20;;;;;;;27.04;100.00;96124.03;5017449;28;20026;-65
2023/08/09 10:04:09;;;;;;;1.60;1.50;;;;;;;26.71;100.00;96118.13;5048658;28;20034;-66
2023/08/09 10:06:42;;;;;;;3.60;1.60;;;;;;;26.96;100.00;96113.59;5017176;28;20113;-65
2023/08/09 10:09:09;;;;;;;1.60;1.50;;;;;;;26.96;100.00;96108.19;5016102;28;20018;-65
2023/08/09 10:11:36;;;;;;;2.05;1.55;;;;;;;27.64;100.00;96116.63;5048390;28;20033;-65
2023/08/09 10:14:05;;;;;;;1.30;1.30;;;;;;;27.43;100.00;96116.19;5016801;28;20030;-65
2023/08/09 10:16:33;;;;;;;1.77;1.63;;;;;;;27.13;100.00;96114.50;5015877;28;20041;-65
2023/08/09 10:19:07;;;;;;;1.17;1.17;;;;;;;27.57;100.00;96119.47;5007855;28;20024;-65
2023/08/09 10:21:32;;;;;;;3.53;1.20;;;;;;;27.29;100.00;96120.22;5016895;28;20076;-65
2023/08/09 10:24:07;;;;;;;1.58;1.30;;;;;;;27.16;100.00;96116.72;5016967;28;20022;-65
2023/08/09 10:26:33;;;;;;;3.55;3.25;;;;;;;27.10;100.00;96119.56;5020319;28;20029;-65
2023/08/09 10:29:06;;;;;;;1.60;1.50;;;;;;;27.40;100.00;96111.28;5010599;28;20032;-65
2023/08/09 10:31:53;;;;;;;1.10;1.10;;;;;;;27.55;100.00;96110.78;5016770;28;20018;-65
2023/08/09 10:34:41;;;;;;;1.60;1.50;;;;;;;27.52;100.00;96108.56;5016563;28;20044;-65
2023/08/09 10:37:09;;;;;;;1.33;1.33;;;;;;;27.90;100.00;96105.50;5017315;28;20030;-65
2023/08/09 10:39:35;;;;;;;1.10;1.10;;;;;;;27.76;100.00;96102.25;5016227;28;20018;-65
2023/08/09 10:42:05;;;;;;;1.15;1.15;;;;;;;27.77;100.00;96104.72;5016179;28;20037;-65
2023/08/09 10:44:42;;;;;;;1.20;1.20;;;;;;;27.77;100.00;96106.63;5047601;28;20096;-65
2023/08/09 10:47:10;;;;;;;1.38;1.27;;;;;;;28.50;100.00;96106.81;5016228;28;20533;-65
2023/08/09 10:49:59;;;;;;;0.95;0.95;;;;;;;28.32;100.00;96099.75;5016567;28;20502;-65
2023/08/09 10:52:32;;;;;;;1.23;1.13;;;;;;;28.48;100.00;96100.00;4980969;28;20529;-65
2023/08/09 10:55:26;;;;;;;2.95;1.02;;;;;;;28.37;100.00;96096.28;5013795;28;20030;-65
2023/08/09 10:57:54;;;;;;;1.40;1.30;;;;;;;28.48;100.00;96092.69;5016513;28;20502;-65
2023/08/09 11:00:22;;;;;;;1.13;1.10;;;;;;;28.73;100.00;96091.44;5004948;28;20312;-65
2023/08/09 11:02:52;;;;;;;1.00;1.00;;;;;;;28.65;100.00;96081.03;5015080;28;20410;-65
2023/08/09 11:05:18;;;;;;;0.88;0.88;;;;;;;28.33;100.00;96084.31;5015876;28;20498;-64
2023/08/09 11:07:53;;;;;;;0.90;0.90;;;;;;;28.82;100.00;96084.56;5015651;28;20034;-65
2023/08/09 11:10:33;;;;;;;1.00;1.00;;;;;;;29.30;100.00;96084.91;5015723;28;20096;-65
2023/08/09 11:13:25;;;;;;;1.20;1.13;;;;;;;29.05;100.00;96077.28;5014542;28;20025;-65
2023/08/09 11:15:51;;;;;;;1.20;1.20;;;;;;;29.12;100.00;96071.66;5014831;28;20049;-65
2023/08/09 11:18:17;;;;;;;0.95;0.95;;;;;;;29.15;100.00;96069.28;5015720;28;20045;-65
2023/08/09 11:20:44;;;;;;;2.35;0.98;;;;;;;29.21;100.00;96077.47;5014067;28;20112;-65
2023/08/09 11:23:10;;;;;;;1.05;1.05;;;;;;;28.68;100.00;96059.69;5015828;28;20142;-65